Time;durP1;ratioP1;P1;durP2;ratioP2;P2;SDS_P1;SDS_P2;PMS_P1;PMS_P2;Temp;Humidity;BMP_temperature;BMP_pressure;BME280_temperature;BME280_humidity;BME280_pressure;Samples;Min_cycle;Max_cycle;Signal;HPM_P1;HPM_P2
2022/07/11 00:02:11;;;;;;;4.55;1.38;;;22.00;63.80;;;;;;4492122;31;20162;-68
2022/07/11 00:04:37;;;;;;;3.78;1.23;;;22.00;63.80;;;;;;4494091;31;20214;-67
2022/07/11 00:07:03;;;;;;;2.88;1.23;;;22.00;63.80;;;;;;4497034;31;20089;-68
2022/07/11 00:09:29;;;;;;;2.53;1.17;;;22.00;63.80;;;;;;4496872;31;20166;-68
2022/07/11 00:11:56;;;;;;;2.28;1.02;;;22.00;63.80;;;;;;4497097;31;20089;-68
2022/07/11 00:14:23;;;;;;;3.53;1.40;;;22.00;63.70;;;;;;4497052;31;20081;-67
2022/07/11 00:16:50;;;;;;;5.22;1.70;;;21.90;63.70;;;;;;4497242;31;20073;-68
2022/07/11 00:19:16;;;;;;;3.90;1.30;;;22.00;63.80;;;;;;4496989;31;20202;-67
2022/07/11 00:21:42;;;;;;;3.22;1.15;;;21.90;63.70;;;;;;4495805;31;20088;-68
2022/07/11 00:24:08;;;;;;;4.25;1.20;;;21.90;63.60;;;;;;4497220;31;20069;-68
2022/07/11 00:26:38;;;;;;;2.22;1.00;;;21.90;63.60;;;;;;4497097;31;20130;-68
2022/07/11 00:29:05;;;;;;;4.15;1.15;;;22.00;63.70;;;;;;4496773;31;20561;-68
2022/07/11 00:31:31;;;;;;;5.30;1.27;;;22.00;63.70;;;;;;4496827;31;20094;-68
2022/07/11 00:33:57;;;;;;;3.22;1.10;;;22.00;63.70;;;;;;4496910;31;20376;-68
2022/07/11 00:36:23;;;;;;;2.90;1.10;;;21.90;63.70;;;;;;4497002;31;20120;-70
2022/07/11 00:38:49;;;;;;;4.38;1.38;;;21.90;63.60;;;;;;4496713;31;20150;-67
2022/07/11 00:41:16;;;;;;;4.00;1.23;;;21.90;63.60;;;;;;4496764;31;20093;-68
2022/07/11 00:43:43;;;;;;;4.60;1.20;;;21.90;63.60;;;;;;4496525;31;20073;-69
2022/07/11 00:46:09;;;;;;;3.63;1.20;;;22.00;63.70;;;;;;4496543;31;20073;-68
2022/07/11 00:48:36;;;;;;;4.10;1.02;;;21.90;63.60;;;;;;4496643;31;20219;-68
2022/07/11 00:51:03;;;;;;;4.78;1.23;;;21.90;63.60;;;;;;4496544;31;20077;-68
2022/07/11 00:53:30;;;;;;;2.55;1.00;;;21.90;63.60;;;;;;4496599;31;20211;-67
2022/07/11 00:55:57;;;;;;;2.90;1.20;;;21.90;63.60;;;;;;4496824;31;20084;-67
2022/07/11 00:58:23;;;;;;;2.33;1.10;;;21.90;63.60;;;;;;4495465;31;20089;-68
2022/07/11 01:00:49;;;;;;;4.32;1.20;;;21.90;63.60;;;;;;4496887;31;20091;-68
2022/07/11 01:03:15;;;;;;;2.35;0.90;;;21.90;63.60;;;;;;4496663;31;20438;-67
2022/07/11 01:05:41;;;;;;;3.55;1.10;;;21.90;63.60;;;;;;4496719;31;20069;-68
2022/07/11 01:08:07;;;;;;;4.47;1.67;;;21.90;63.50;;;;;;4496682;31;20065;-67
2022/07/11 01:10:34;;;;;;;1.65;0.82;;;21.90;63.60;;;;;;4495509;31;20095;-67
2022/07/11 01:13:00;;;;;;;2.30;1.00;;;21.90;63.50;;;;;;4496520;31;20538;-67
2022/07/11 01:15:27;;;;;;;3.60;1.20;;;21.90;63.60;;;;;;4495705;31;20143;-68
2022/07/11 01:17:53;;;;;;;2.47;1.10;;;21.90;63.50;;;;;;4493459;31;20285;-67
2022/07/11 01:20:20;;;;;;;3.28;1.10;;;21.90;63.60;;;;;;4494166;31;20072;-67
2022/07/11 01:22:50;;;;;;;2.28;0.90;;;21.90;63.60;;;;;;4494379;31;20222;-67
2022/07/11 01:25:34;;;;;;;3.40;1.02;;;21.90;63.60;;;;;;4494257;31;20498;-68
2022/07/11 01:28:08;;;;;;;3.33;0.98;;;21.90;63.60;;;;;;4494188;31;20065;-67
2022/07/11 01:30:34;;;;;;;3.38;1.05;;;21.80;63.50;;;;;;4493058;31;20108;-67
2022/07/11 01:33:00;;;;;;;1.63;0.80;;;21.90;63.50;;;;;;4493753;31;20095;-67
2022/07/11 01:35:28;;;;;;;4.15;1.10;;;21.80;63.50;;;;;;4494186;31;20426;-67
2022/07/11 01:37:54;;;;;;;2.13;0.98;;;21.90;63.50;;;;;;4493802;31;20227;-67
2022/07/11 01:40:20;;;;;;;3.97;1.00;;;21.90;63.50;;;;;;4494085;31;20410;-67
2022/07/11 01:42:46;;;;;;;4.65;1.40;;;21.90;63.50;;;;;;4493949;31;20146;-67
2022/07/11 01:45:12;;;;;;;2.85;1.00;;;21.80;63.50;;;;;;4493749;31;20512;-67
2022/07/11 01:47:39;;;;;;;2.15;0.80;;;21.80;63.50;;;;;;4493797;31;20519;-67
2022/07/11 01:50:05;;;;;;;2.88;0.88;;;21.90;63.60;;;;;;4493967;31;20061;-67
2022/07/11 01:52:32;;;;;;;1.60;1.00;;;21.80;63.40;;;;;;4493621;31;21642;-67
2022/07/11 01:54:58;;;;;;;2.03;0.93;;;21.90;63.50;;;;;;4493510;31;20065;-67
2022/07/11 01:57:23;;;;;;;2.88;1.02;;;21.90;63.50;;;;;;4493885;31;20524;-67
2022/07/11 01:59:49;;;;;;;2.70;1.10;;;21.90;63.50;;;;;;4493575;31;20407;-67
2022/07/11 02:02:15;;;;;;;3.17;0.88;;;21.80;63.40;;;;;;4492712;31;20077;-68
2022/07/11 02:04:41;;;;;;;5.05;1.17;;;21.80;63.40;;;;;;4492433;31;20395;-67
2022/07/11 02:07:07;;;;;;;2.55;0.82;;;21.80;63.40;;;;;;4493400;31;20079;-67
2022/07/11 02:09:33;;;;;;;1.88;1.10;;;21.90;63.50;;;;;;4493753;31;20088;-66
2022/07/11 02:12:00;;;;;;;2.08;0.80;;;21.80;63.40;;;;;;4493259;31;20057;-67
2022/07/11 02:14:26;;;;;;;1.55;0.90;;;21.90;63.50;;;;;;4493078;31;20091;-67
2022/07/11 02:16:52;;;;;;;1.27;0.70;;;21.90;63.50;;;;;;4493433;31;20179;-67
2022/07/11 02:19:18;;;;;;;1.85;0.90;;;21.80;63.40;;;;;;4493441;31;20499;-66
2022/07/11 02:21:44;;;;;;;2.33;0.93;;;21.90;63.50;;;;;;4493112;31;20100;-66
2022/07/11 02:24:10;;;;;;;3.50;0.95;;;21.80;63.50;;;;;;4493210;31;20215;-66
2022/07/11 02:26:36;;;;;;;2.15;0.80;;;21.80;63.60;;;;;;4492944;31;20215;-67
2022/07/11 02:29:02;;;;;;;2.33;0.88;;;21.90;63.60;;;;;;4491376;31;20085;-67
2022/07/11 02:31:27;;;;;;;2.42;1.10;;;21.90;63.60;;;;;;4493227;31;20065;-67
2022/07/11 02:33:53;;;;;;;2.97;0.85;;;21.80;63.50;;;;;;4493058;31;20092;-67
2022/07/11 02:36:20;;;;;;;3.42;1.13;;;21.90;63.70;;;;;;4492816;31;20139;-67
2022/07/11 02:38:45;;;;;;;2.53;1.00;;;21.80;63.60;;;;;;4492923;31;20129;-66
2022/07/11 02:41:12;;;;;;;3.42;0.90;;;21.80;63.60;;;;;;4493150;31;20069;-67
2022/07/11 02:43:38;;;;;;;1.42;0.70;;;21.80;63.60;;;;;;4492550;31;20073;-67
2022/07/11 02:46:04;;;;;;;1.90;0.93;;;21.80;63.60;;;;;;4493164;31;20077;-66
2022/07/11 02:48:31;;;;;;;2.05;0.90;;;21.80;63.60;;;;;;4492551;31;20242;-67
2022/07/11 02:50:56;;;;;;;1.30;0.80;;;21.80;63.60;;;;;;4493020;31;20065;-67
2022/07/11 02:53:22;;;;;;;1.98;0.80;;;21.80;63.60;;;;;;4492712;31;20419;-66
2022/07/11 02:55:48;;;;;;;2.53;0.90;;;21.80;63.60;;;;;;4492692;31;20128;-65
2022/07/11 02:58:14;;;;;;;3.55;0.98;;;21.80;63.60;;;;;;4492377;31;20554;-66
2022/07/11 03:00:41;;;;;;;2.00;0.60;;;21.80;63.60;;;;;;4492657;31;20069;-66
2022/07/11 03:03:07;;;;;;;2.70;0.90;;;21.80;63.60;;;;;;4492842;31;20639;-67
2022/07/11 03:05:33;;;;;;;1.70;0.70;;;21.70;63.50;;;;;;4492264;31;20073;-67
2022/07/11 03:07:59;;;;;;;4.07;0.80;;;21.80;63.60;;;;;;4492587;31;20065;-67
2022/07/11 03:10:25;;;;;;;2.25;0.80;;;21.80;63.60;;;;;;4492508;31;20078;-66
2022/07/11 03:12:51;;;;;;;2.15;0.93;;;21.80;64.50;;;;;;4492343;31;20069;-66
2022/07/11 03:15:17;;;;;;;3.15;0.70;;;21.70;63.60;;;;;;4492466;31;20077;-67
2022/07/11 03:17:43;;;;;;;2.60;0.73;;;21.70;63.60;;;;;;4492417;31;20430;-66
2022/07/11 03:20:10;;;;;;;2.00;0.60;;;21.70;63.50;;;;;;4492405;31;20073;-66
2022/07/11 03:22:36;;;;;;;1.73;0.88;;;21.70;63.60;;;;;;4492112;31;20179;-67
2022/07/11 03:25:06;;;;;;;3.13;0.82;;;21.80;63.60;;;;;;4492368;31;20135;-67
2022/07/11 03:27:33;;;;;;;1.00;0.70;;;21.70;63.50;;;;;;4492487;31;20526;-66
2022/07/11 03:29:59;;;;;;;1.90;0.70;;;21.70;63.50;;;;;;4492005;31;20088;-66
2022/07/11 03:32:25;;;;;;;1.70;0.70;;;21.70;63.60;;;;;;4491216;31;20127;-67
2022/07/11 03:37:35;;;;;;;1.90;0.60;;;21.70;63.60;;;;;;4492578;31;20104;-67
2022/07/11 03:40:01;;;;;;;2.05;0.88;;;21.70;63.50;;;;;;4491418;31;20560;-67
2022/07/11 03:42:27;;;;;;;1.95;0.65;;;21.70;63.50;;;;;;4490989;31;20079;-67
2022/07/11 03:44:53;;;;;;;1.48;0.80;;;21.70;63.50;;;;;;4492159;31;20136;-67
2022/07/11 03:47:19;;;;;;;1.90;0.70;;;21.70;63.50;;;;;;4491114;31;20142;-67
2022/07/11 03:49:46;;;;;;;2.55;0.70;;;21.70;63.50;;;;;;4491782;31;20092;-66
2022/07/11 03:52:12;;;;;;;1.95;0.60;;;21.70;63.50;;;;;;4492073;31;20199;-67
2022/07/11 03:54:38;;;;;;;1.42;0.95;;;21.70;63.50;;;;;;4492111;31;20230;-67
2022/07/11 03:57:04;;;;;;;2.45;0.75;;;21.70;63.50;;;;;;4491763;31;20520;-66
2022/07/11 03:59:30;;;;;;;3.95;0.70;;;21.70;63.50;;;;;;4492291;31;20077;-67
2022/07/11 04:01:56;;;;;;;1.27;0.70;;;21.70;63.50;;;;;;4491977;31;20099;-67
2022/07/11 04:04:22;;;;;;;1.95;0.75;;;21.70;63.50;;;;;;4492252;31;20490;-66
2022/07/11 04:06:48;;;;;;;1.90;0.75;;;21.70;63.50;;;;;;4492089;32;20154;-66
2022/07/11 04:09:14;;;;;;;2.05;0.60;;;21.70;63.50;;;;;;4492030;32;20076;-66
2022/07/11 04:11:39;;;;;;;0.90;0.55;;;21.70;63.50;;;;;;4490847;32;20069;-67
2022/07/11 04:14:05;;;;;;;1.15;0.52;;;21.60;63.40;;;;;;4490539;32;20149;-67
2022/07/11 04:16:31;;;;;;;1.33;0.70;;;21.70;63.50;;;;;;4491871;32;20075;-67
2022/07/11 04:18:57;;;;;;;1.30;0.75;;;21.70;63.50;;;;;;4491576;32;20088;-67
2022/07/11 04:21:23;;;;;;;2.08;0.93;;;21.70;63.60;;;;;;4491575;32;20061;-66
2022/07/11 04:23:49;;;;;;;1.58;0.55;;;21.70;63.50;;;;;;4491828;32;20226;-67
2022/07/11 04:26:15;;;;;;;1.88;0.65;;;21.70;63.60;;;;;;4491740;32;20088;-66
2022/07/11 04:28:42;;;;;;;1.95;0.82;;;21.70;63.60;;;;;;4491986;32;20127;-66
2022/07/11 04:31:10;;;;;;;1.23;0.52;;;21.60;63.50;;;;;;4490761;32;20223;-66
2022/07/11 04:33:36;;;;;;;2.05;0.80;;;21.60;63.40;;;;;;4491729;32;20089;-67
2022/07/11 04:36:02;;;;;;;1.95;0.70;;;21.60;63.40;;;;;;4491736;32;20076;-66
2022/07/11 04:38:28;;;;;;;3.45;0.60;;;21.60;63.40;;;;;;4492456;32;20375;-67
2022/07/11 04:40:54;;;;;;;1.00;0.60;;;21.60;63.40;;;;;;4491688;32;20203;-66
2022/07/11 04:43:20;;;;;;;2.00;0.57;;;21.60;63.40;;;;;;4491796;32;20057;-67
2022/07/11 04:45:46;;;;;;;1.73;0.65;;;21.60;63.40;;;;;;4491829;32;20222;-66
2022/07/11 04:48:11;;;;;;;2.40;1.00;;;21.60;63.40;;;;;;4491355;32;20081;-67
2022/07/11 04:50:37;;;;;;;1.52;0.50;;;21.60;63.40;;;;;;4492775;31;20087;-67
2022/07/11 04:53:03;;;;;;;0.90;0.60;;;21.60;63.40;;;;;;4494403;31;20379;-67
2022/07/11 04:55:29;;;;;;;1.23;0.60;;;21.60;63.40;;;;;;4494750;31;20083;-67
2022/07/11 04:57:55;;;;;;;1.15;0.60;;;21.60;63.40;;;;;;4494826;31;20222;-66
2022/07/11 05:00:21;;;;;;;0.68;0.38;;;21.60;63.40;;;;;;4494521;31;20157;-66
2022/07/11 05:02:47;;;;;;;2.13;0.70;;;21.60;63.40;;;;;;4493407;31;20077;-67
2022/07/11 05:05:13;;;;;;;0.93;0.50;;;21.60;63.40;;;;;;4494413;31;20162;-66
2022/07/11 05:07:39;;;;;;;0.60;0.40;;;21.60;63.40;;;;;;4494499;31;20128;-67
2022/07/11 05:10:05;;;;;;;0.75;0.55;;;21.60;63.50;;;;;;4494341;31;20130;-66
2022/07/11 05:12:31;;;;;;;1.00;0.52;;;21.60;63.40;;;;;;4492937;31;20079;-66
2022/07/11 05:15:00;;;;;;;1.17;0.70;;;21.60;63.40;;;;;;4494234;31;20061;-66
2022/07/11 05:17:26;;;;;;;1.42;0.65;;;21.60;63.40;;;;;;4480306;31;20080;-66
2022/07/11 05:19:53;;;;;;;1.27;0.40;;;21.60;63.40;;;;;;4494194;31;20222;-67
2022/07/11 05:22:19;;;;;;;1.25;0.60;;;21.60;63.40;;;;;;4494112;31;20113;-67
2022/07/11 05:24:45;;;;;;;0.80;0.50;;;21.60;63.40;;;;;;4492805;31;20109;-66
2022/07/11 05:27:10;;;;;;;2.72;1.02;;;21.60;63.40;;;;;;4492974;31;20069;-67
2022/07/11 05:29:36;;;;;;;1.20;0.60;;;21.60;63.40;;;;;;4494072;31;20061;-67
2022/07/11 05:32:02;;;;;;;1.52;0.50;;;21.60;64.30;;;;;;4494017;31;20159;-67
2022/07/11 05:34:28;;;;;;;2.00;0.60;;;21.60;63.40;;;;;;4492607;31;20088;-67
2022/07/11 05:36:54;;;;;;;1.02;0.57;;;21.60;63.50;;;;;;4494034;31;20116;-67
2022/07/11 05:39:20;;;;;;;1.75;0.70;;;21.60;63.40;;;;;;4493893;31;20083;-67
2022/07/11 05:41:46;;;;;;;0.98;0.50;;;21.60;63.40;;;;;;4493561;31;20109;-66
2022/07/11 05:44:12;;;;;;;0.88;0.50;;;21.60;63.40;;;;;;4493748;31;20139;-67
2022/07/11 05:46:39;;;;;;;1.10;0.40;;;21.60;63.30;;;;;;4492436;31;20522;-66
2022/07/11 05:49:07;;;;;;;1.15;0.45;;;21.60;63.40;;;;;;4492689;31;20122;-67
2022/07/11 05:51:33;;;;;;;0.88;0.57;;;21.60;63.40;;;;;;4493681;31;20093;-68
2022/07/11 05:53:59;;;;;;;1.10;0.60;;;21.60;63.40;;;;;;4493508;31;20158;-66
2022/07/11 05:56:28;;;;;;;1.35;0.70;;;21.60;63.40;;;;;;4493632;31;20258;-67
2022/07/11 05:58:55;;;;;;;1.48;0.52;;;21.60;63.40;;;;;;4493533;31;20116;-66
2022/07/11 06:01:22;;;;;;;1.25;0.60;;;21.60;63.40;;;;;;4493649;31;20577;-67
2022/07/11 06:03:48;;;;;;;0.95;0.60;;;21.60;63.30;;;;;;4493004;31;20065;-67
2022/07/11 06:06:14;;;;;;;0.90;0.60;;;21.60;64.30;;;;;;4493493;31;20069;-66
2022/07/11 06:08:40;;;;;;;0.95;0.60;;;21.60;63.40;;;;;;4493423;31;20473;-67
2022/07/11 06:11:06;;;;;;;0.85;0.50;;;21.60;63.40;;;;;;4493116;31;20488;-66
2022/07/11 06:13:32;;;;;;;1.52;0.65;;;21.60;63.40;;;;;;4493421;31;20088;-67
2022/07/11 06:15:58;;;;;;;0.70;0.50;;;21.60;63.40;;;;;;4493342;31;20085;-66
2022/07/11 06:18:25;;;;;;;0.60;0.40;;;21.60;63.40;;;;;;4492261;31;20506;-67
2022/07/11 06:20:52;;;;;;;1.10;0.50;;;21.60;63.40;;;;;;4493333;31;20081;-67
2022/07/11 06:23:18;;;;;;;1.17;0.60;;;21.60;63.40;;;;;;4493310;31;20057;-67
2022/07/11 06:25:44;;;;;;;0.95;0.50;;;21.60;63.40;;;;;;4492182;31;20157;-67
2022/07/11 06:28:10;;;;;;;0.80;0.50;;;21.60;63.40;;;;;;4492939;31;20506;-67
2022/07/11 06:30:36;;;;;;;0.98;0.40;;;21.60;63.40;;;;;;4492897;31;20100;-67
2022/07/11 06:33:03;;;;;;;0.80;0.47;;;21.60;64.30;;;;;;4493226;31;20099;-66
2022/07/11 06:35:29;;;;;;;1.42;0.50;;;21.60;63.40;;;;;;4493339;31;20162;-67
2022/07/11 06:37:58;;;;;;;2.15;0.50;;;21.60;63.40;;;;;;4492994;31;20180;-67
2022/07/11 06:40:24;;;;;;;1.23;0.47;;;21.60;63.40;;;;;;4493008;31;20081;-67
2022/07/11 06:42:50;;;;;;;0.90;0.50;;;21.60;64.30;;;;;;4491797;31;20092;-67
2022/07/11 06:45:16;;;;;;;1.88;0.57;;;21.70;63.50;;;;;;4492867;31;20069;-67
2022/07/11 06:47:42;;;;;;;0.98;0.55;;;21.70;63.60;;;;;;4492730;31;20066;-66
2022/07/11 06:50:08;;;;;;;2.50;0.50;;;21.80;63.70;;;;;;4492801;31;20182;-67
2022/07/11 06:52:34;;;;;;;2.47;0.50;;;21.80;63.80;;;;;;4492318;31;20076;-69
2022/07/11 06:55:00;;;;;;;1.30;0.30;;;21.90;64.10;;;;;;4493148;31;20203;-67
2022/07/11 06:57:26;;;;;;;1.52;0.60;;;21.80;64.10;;;;;;4492724;31;20081;-66
2022/07/11 06:59:53;;;;;;;1.05;0.43;;;21.90;64.30;;;;;;4492643;31;20087;-67
2022/07/11 07:02:19;;;;;;;1.23;0.55;;;21.90;64.50;;;;;;4492246;31;20091;-67
2022/07/11 07:04:45;;;;;;;1.17;0.50;;;21.90;64.70;;;;;;4492575;31;20270;-67
2022/07/11 07:07:11;;;;;;;0.95;0.50;;;21.90;64.70;;;;;;4492530;31;20061;-66
2022/07/11 07:09:37;;;;;;;2.10;0.60;;;21.90;64.80;;;;;;4492779;31;20461;-67
2022/07/11 07:12:03;;;;;;;1.90;0.50;;;21.90;64.90;;;;;;4492591;31;20061;-67
2022/07/11 07:14:28;;;;;;;2.00;0.75;;;21.90;65.00;;;;;;4491640;31;20069;-67
2022/07/11 07:16:54;;;;;;;1.38;0.50;;;21.90;64.90;;;;;;4492710;31;20214;-67
2022/07/11 07:19:20;;;;;;;2.45;0.57;;;21.90;65.10;;;;;;4492147;31;20162;-67
2022/07/11 07:21:47;;;;;;;1.23;0.50;;;21.90;65.10;;;;;;4492564;31;20178;-68
2022/07/11 07:24:13;;;;;;;1.00;0.50;;;21.90;65.10;;;;;;4492649;31;20154;-67
2022/07/11 07:26:39;;;;;;;3.13;0.50;;;21.90;65.20;;;;;;4492274;31;20066;-67
2022/07/11 07:29:05;;;;;;;2.58;0.40;;;21.90;65.20;;;;;;4492629;31;20163;-67
2022/07/11 07:31:31;;;;;;;2.55;0.50;;;21.90;65.20;;;;;;4492281;31;20073;-66
2022/07/11 07:33:57;;;;;;;3.25;0.60;;;22.00;65.40;;;;;;4492273;31;20134;-67
2022/07/11 07:36:23;;;;;;;1.10;0.50;;;22.00;65.50;;;;;;4492291;31;20205;-67
2022/07/11 07:38:49;;;;;;;1.20;0.63;;;22.00;65.40;;;;;;4491963;31;20120;-67
2022/07/11 07:41:16;;;;;;;1.10;0.40;;;22.00;65.40;;;;;;4492467;31;20666;-67
2022/07/11 07:43:45;;;;;;;0.55;0.30;;;22.00;65.50;;;;;;4491041;31;20116;-67
2022/07/11 07:46:11;;;;;;;0.60;0.20;;;22.00;65.40;;;;;;4492049;31;20069;-67
2022/07/11 07:48:40;;;;;;;1.10;0.50;;;22.00;65.40;;;;;;4491844;31;20072;-67
2022/07/11 07:51:07;;;;;;;1.08;0.25;;;22.00;65.50;;;;;;4492023;31;20065;-66
2022/07/11 07:53:33;;;;;;;1.92;0.50;;;22.00;65.60;;;;;;4491855;31;20077;-67
2022/07/11 07:55:58;;;;;;;0.82;0.40;;;22.00;65.50;;;;;;4491739;31;20085;-67
2022/07/11 07:58:24;;;;;;;1.00;0.20;;;22.10;65.60;;;;;;4491974;31;20187;-67
2022/07/11 08:03:35;;;;;;;1.20;0.22;;;22.10;65.50;;;;;;4492058;31;20085;-67
2022/07/11 08:06:01;;;;;;;0.80;0.32;;;22.10;65.50;;;;;;4491925;32;20093;-67
2022/07/11 08:08:26;;;;;;;0.85;0.30;;;22.10;65.50;;;;;;4491617;32;20084;-67
2022/07/11 08:10:52;;;;;;;2.22;0.30;;;22.10;65.50;;;;;;4492188;32;20150;-67
2022/07/11 08:13:19;;;;;;;0.85;0.25;;;22.10;65.40;;;;;;4491834;32;20077;-67
2022/07/11 08:15:46;;;;;;;0.30;0.20;;;22.10;65.40;;;;;;4491593;32;20554;-67
2022/07/11 08:18:12;;;;;;;0.38;0.32;;;22.10;65.50;;;;;;4491898;32;20077;-67
2022/07/11 08:20:38;;;;;;;7.50;0.47;;;22.10;65.50;;;;;;4491754;32;20087;-66
2022/07/11 08:23:05;;;;;;;1.55;0.32;;;22.10;65.60;;;;;;4491776;32;20209;-67
2022/07/11 08:25:31;;;;;;;2.40;0.30;;;22.00;65.40;;;;;;4492872;31;20077;-67
2022/07/11 08:27:57;;;;;;;3.55;0.40;;;22.00;65.40;;;;;;4495249;31;20091;-66
2022/07/11 08:30:25;;;;;;;2.55;0.47;;;22.10;65.50;;;;;;4495216;31;20096;-66
2022/07/11 08:32:51;;;;;;;4.85;0.63;;;22.10;65.40;;;;;;4494876;31;20091;-66
2022/07/11 08:35:17;;;;;;;2.72;0.95;;;22.10;65.50;;;;;;4495039;31;20219;-66
2022/07/11 08:37:43;;;;;;;2.85;0.60;;;22.10;65.40;;;;;;4494622;31;20073;-67
2022/07/11 08:40:10;;;;;;;1.20;0.40;;;22.10;65.50;;;;;;4494826;31;20084;-67
2022/07/11 08:42:44;;;;;;;1.15;0.43;;;22.10;65.50;;;;;;4494419;31;20076;-67
2022/07/11 08:45:13;;;;;;;;;;;22.10;65.50;;;;;;4495433;31;20518;-67
2022/07/11 08:47:40;;;;;;;1.60;0.40;;;22.10;65.40;;;;;;4494626;31;20070;-67
2022/07/11 08:50:07;;;;;;;1.55;0.43;;;22.10;65.40;;;;;;4494652;31;20131;-67
2022/07/11 08:52:33;;;;;;;1.95;0.50;;;22.10;65.40;;;;;;4494460;31;20282;-67
2022/07/11 08:54:59;;;;;;;2.63;0.40;;;22.10;65.40;;;;;;4494710;31;20077;-67
2022/07/11 08:57:25;;;;;;;0.80;0.22;;;22.10;65.50;;;;;;4494788;31;20124;-67
2022/07/11 08:59:57;;;;;;;1.17;0.30;;;22.10;65.40;;;;;;4494599;31;20077;-68
2022/07/11 09:02:24;;;;;;;1.13;0.30;;;22.10;65.40;;;;;;4494832;31;20099;-67
2022/07/11 09:04:50;;;;;;;1.95;0.38;;;22.20;65.50;;;;;;4494652;31;20136;-68
2022/07/11 09:07:16;;;;;;;1.75;0.35;;;22.20;65.30;;;;;;4494391;31;20519;-67
2022/07/11 09:09:42;;;;;;;2.10;0.40;;;22.20;65.30;;;;;;4494343;31;20061;-68
2022/07/11 09:12:12;;;;;;;0.80;0.32;;;22.20;65.20;;;;;;4494013;31;20490;-68
2022/07/11 09:14:38;;;;;;;1.65;0.55;;;22.20;65.30;;;;;;4494019;31;20510;-67
2022/07/11 09:17:06;;;;;;;1.85;0.35;;;22.20;65.30;;;;;;4494480;31;20092;-68
2022/07/11 09:19:37;;;;;;;3.15;0.10;;;22.20;65.40;;;;;;4494455;31;20418;-69
2022/07/11 09:25:23;;;;;;;5.15;0.55;;;22.20;65.40;;;;;;4494096;31;20104;-68
2022/07/11 09:27:49;;;;;;;1.17;0.20;;;22.20;65.40;;;;;;4494423;31;20087;-68
2022/07/11 09:30:21;;;;;;;2.05;0.20;;;22.20;65.40;;;;;;4493919;31;20113;-68
2022/07/11 09:33:12;;;;;;;3.72;0.63;;;22.20;65.40;;;;;;4493903;31;20127;-68
2022/07/11 09:35:45;;;;;;;3.13;0.45;;;22.20;65.40;;;;;;4494248;31;20490;-71
2022/07/11 09:38:13;;;;;;;2.72;0.40;;;22.20;65.40;;;;;;4492898;31;20073;-68
2022/07/11 09:40:43;;;;;;;0.65;0.30;;;22.20;65.40;;;;;;4493473;31;20081;-69
2022/07/11 09:43:09;;;;;;;0.63;0.30;;;22.20;65.40;;;;;;4494098;31;20238;-68
2022/07/11 09:45:35;;;;;;;1.35;0.38;;;22.20;65.40;;;;;;4493808;31;20076;-69
2022/07/11 09:48:09;;;;;;;2.15;0.30;;;22.20;65.40;;;;;;4493783;31;20411;-68
2022/07/11 09:50:35;;;;;;;2.90;0.40;;;22.20;65.50;;;;;;4494072;31;20428;-69
2022/07/11 09:53:02;;;;;;;3.60;0.30;;;22.20;65.50;;;;;;4493734;31;20080;-67
2022/07/11 09:55:32;;;;;;;0.95;0.55;;;22.20;65.40;;;;;;4493381;31;20099;-68
2022/07/11 09:57:58;;;;;;;2.35;0.20;;;22.20;65.30;;;;;;4493795;31;20069;-74
2022/07/11 10:00:24;;;;;;;1.98;0.32;;;22.20;65.20;;;;;;4493859;31;20364;-70
2022/07/11 10:02:52;;;;;;;2.35;0.40;;;22.20;65.20;;;;;;4493813;31;20158;-68
2022/07/11 10:05:19;;;;;;;1.15;0.47;;;22.30;65.30;;;;;;4493582;31;20065;-68
2022/07/11 10:07:45;;;;;;;1.65;0.20;;;22.20;65.30;;;;;;4493490;31;20205;-68
2022/07/11 10:10:11;;;;;;;0.70;0.20;;;22.20;65.20;;;;;;4493453;31;20085;-67
2022/07/11 10:12:37;;;;;;;3.30;0.47;;;22.20;65.20;;;;;;4493451;31;20238;-67
2022/07/11 10:15:10;;;;;;;1.48;0.38;;;22.20;65.20;;;;;;4492377;31;20170;-68
2022/07/11 10:17:57;;;;;;;1.70;0.50;;;22.20;65.20;;;;;;4494055;31;20418;-68
2022/07/11 10:20:34;;;;;;;1.00;0.20;;;22.20;65.20;;;;;;4493103;31;20076;-69
2022/07/11 10:23:23;;;;;;;2.10;0.55;;;22.20;65.20;;;;;;4493068;31;20088;-67
2022/07/11 10:25:56;;;;;;;2.72;0.20;;;22.20;65.20;;;;;;4492226;31;20061;-68
2022/07/11 10:28:22;;;;;;;1.92;0.20;;;22.20;65.20;;;;;;4493585;31;20099;-68
2022/07/11 10:30:57;;;;;;;0.85;0.30;;;22.20;65.20;;;;;;4493210;31;20198;-68
2022/07/11 10:33:22;;;;;;;1.25;0.38;;;22.20;65.30;;;;;;4493208;31;20151;-68
2022/07/11 10:35:53;;;;;;;2.80;0.30;;;22.20;66.10;;;;;;4493035;31;20496;-68
2022/07/11 10:38:19;;;;;;;1.45;0.30;;;22.30;65.20;;;;;;4492666;31;20174;-68
2022/07/11 10:40:58;;;;;;;0.68;0.20;;;22.30;65.20;;;;;;4493098;31;20127;-68
2022/07/11 10:43:30;;;;;;;2.22;0.40;;;22.30;65.10;;;;;;4492635;31;20214;-68
2022/07/11 10:46:05;;;;;;;0.95;0.32;;;22.30;65.10;;;;;;4492846;31;20105;-67
2022/07/11 10:48:33;;;;;;;2.47;0.20;;;22.30;65.10;;;;;;4492892;31;20077;-68
2022/07/11 10:51:19;;;;;;;0.70;0.30;;;22.30;65.10;;;;;;4492812;31;20426;-67
2022/07/11 10:53:48;;;;;;;1.05;0.30;;;22.30;65.10;;;;;;4492714;31;20117;-68
2022/07/11 10:56:49;;;;;;;0.90;0.20;;;22.30;65.10;;;;;;4492798;31;20124;-67
2022/07/11 10:59:17;;;;;;;1.20;0.30;;;22.40;65.20;;;;;;4492517;31;20092;-68
2022/07/11 11:02:03;;;;;;;3.28;0.40;;;22.40;65.20;;;;;;4492421;31;20116;-68
2022/07/11 11:04:58;;;;;;;0.82;0.20;;;22.40;65.20;;;;;;4492709;31;20636;-67
2022/07/11 11:07:38;;;;;;;2.03;0.40;;;22.40;65.10;;;;;;4493333;31;20090;-67
2022/07/11 11:10:18;;;;;;;2.90;0.38;;;22.40;65.00;;;;;;4492771;31;20588;-68
2022/07/11 11:13:07;;;;;;;2.08;0.20;;;22.40;65.10;;;;;;4492927;31;20215;-68
2022/07/11 11:15:46;;;;;;;1.23;0.30;;;22.40;65.10;;;;;;4492492;31;20128;-68
2022/07/11 11:18:24;;;;;;;2.88;0.20;;;22.40;65.10;;;;;;4492612;31;20081;-68
2022/07/11 11:21:06;;;;;;;2.88;0.20;;;22.40;65.10;;;;;;4491924;31;20081;-68
2022/07/11 11:23:33;;;;;;;1.02;0.57;;;22.40;65.10;;;;;;4492159;31;20223;-68
2022/07/11 11:26:06;;;;;;;0.90;0.20;;;22.40;65.20;;;;;;4492334;31;20490;-68
2022/07/11 11:28:32;;;;;;;1.75;0.43;;;22.40;65.30;;;;;;4492350;31;20088;-68
2022/07/11 11:31:00;;;;;;;1.15;0.32;;;22.40;65.30;;;;;;4492583;31;20087;-67
2022/07/11 11:33:31;;;;;;;0.70;0.10;;;22.40;65.40;;;;;;4492029;31;20113;-68
2022/07/11 11:35:59;;;;;;;1.17;0.30;;;22.40;65.40;;;;;;4491333;31;20514;-67
2022/07/11 11:38:26;;;;;;;4.03;0.40;;;22.40;65.40;;;;;;4492236;31;20627;-68
2022/07/11 11:40:51;;;;;;;1.27;0.32;;;22.40;65.40;;;;;;4492000;31;20120;-67
2022/07/11 11:43:21;;;;;;;0.70;0.20;;;22.40;65.40;;;;;;4492381;31;20211;-68
2022/07/11 11:45:51;;;;;;;1.95;0.40;;;22.40;65.40;;;;;;4492308;31;20077;-68
2022/07/11 11:48:33;;;;;;;1.45;0.32;;;22.40;65.50;;;;;;4492337;31;20105;-68
2022/07/11 11:51:06;;;;;;;0.93;0.40;;;22.40;65.50;;;;;;4492125;31;20065;-67
2022/07/11 11:53:39;;;;;;;2.13;0.45;;;22.40;65.40;;;;;;4491915;31;20218;-68
2022/07/11 11:56:15;;;;;;;2.55;0.30;;;22.40;65.40;;;;;;4491876;31;20588;-67
2022/07/11 11:58:44;;;;;;;0.90;0.15;;;22.40;65.50;;;;;;4492165;31;20158;-68
2022/07/11 12:01:11;;;;;;;0.65;0.20;;;22.40;65.50;;;;;;4491881;31;20514;-67
2022/07/11 12:03:54;;;;;;;0.52;0.20;;;22.40;65.50;;;;;;4490909;31;20162;-67
2022/07/11 12:06:28;;;;;;;0.50;0.10;;;22.40;65.50;;;;;;4491865;31;20190;-68
2022/07/11 12:09:09;;;;;;;2.10;0.20;;;22.40;65.40;;;;;;4492249;32;20162;-67
2022/07/11 12:11:35;;;;;;;3.42;0.20;;;22.40;65.50;;;;;;4491086;32;20483;-67
2022/07/11 12:14:07;;;;;;;1.58;0.10;;;22.40;65.50;;;;;;4491806;32;20124;-67
2022/07/11 12:16:44;;;;;;;1.48;0.20;;;22.40;65.40;;;;;;4491881;32;20073;-67
2022/07/11 12:19:19;;;;;;;0.98;0.25;;;22.40;65.40;;;;;;4491964;32;20062;-66
2022/07/11 12:21:47;;;;;;;2.35;0.20;;;22.40;65.30;;;;;;4491998;32;20077;-67
2022/07/11 12:24:20;;;;;;;5.90;0.32;;;22.40;65.30;;;;;;4491913;32;20096;-67
2022/07/11 12:26:48;;;;;;;1.70;0.20;;;22.40;65.30;;;;;;4492215;32;20081;-67
2022/07/11 12:29:16;;;;;;;1.08;0.28;;;22.40;65.40;;;;;;4491748;32;20081;-67
2022/07/11 12:31:57;;;;;;;3.25;0.22;;;22.40;65.30;;;;;;4492026;32;20076;-67
2022/07/11 12:34:25;;;;;;;1.52;0.40;;;22.40;65.30;;;;;;4491958;32;20211;-68
2022/07/11 12:37:12;;;;;;;0.70;0.20;;;22.40;65.30;;;;;;4491699;32;20085;-68
2022/07/11 12:39:51;;;;;;;1.30;0.20;;;22.40;65.40;;;;;;4491723;32;20483;-67
2022/07/11 12:42:32;;;;;;;1.42;0.25;;;22.40;65.40;;;;;;4490816;32;20125;-68
2022/07/11 12:45:07;;;;;;;1.20;0.20;;;22.50;65.50;;;;;;4491663;32;20069;-67
2022/07/11 12:47:36;;;;;;;1.83;0.13;;;22.40;65.50;;;;;;4491542;32;20473;-66
2022/07/11 12:50:22;;;;;;;4.07;0.30;;;22.40;65.40;;;;;;4491838;32;20620;-68
2022/07/11 12:53:06;;;;;;;2.10;0.30;;;22.50;65.50;;;;;;4491428;32;20077;-67
2022/07/11 12:55:34;;;;;;;0.70;0.10;;;22.50;65.50;;;;;;4491651;32;20207;-68
2022/07/11 12:58:08;;;;;;;0.95;0.20;;;22.50;65.50;;;;;;4491516;32;20089;-66
2022/07/11 13:00:44;;;;;;;0.50;0.20;;;22.50;66.30;;;;;;4492008;32;20087;-67
2022/07/11 13:03:10;;;;;;;1.33;0.20;;;22.50;65.60;;;;;;4491559;32;20083;-67